createdAt,value
2018-12-16T00:01:28.129Z,36.40
2018-12-16T00:03:55.308Z,37.85
2018-12-16T00:06:22.516Z,36.88
2018-12-16T00:08:49.832Z,41.88
2018-12-16T00:11:17.015Z,40.78
2018-12-16T00:13:44.200Z,32.35
2018-12-16T00:16:11.503Z,40.58
2018-12-16T00:18:38.676Z,44.48
2018-12-16T00:21:05.992Z,30.97
2018-12-16T00:23:33.175Z,30.95
2018-12-16T00:26:00.596Z,36.48
2018-12-16T00:28:27.809Z,43.48
2018-12-16T00:30:55.124Z,29.27
2018-12-16T00:33:22.336Z,37.70
2018-12-16T00:35:49.529Z,39.90
2018-12-16T00:38:16.716Z,26.62
2018-12-16T00:40:43.944Z,40.00
2018-12-16T00:43:11.128Z,34.23
2018-12-16T00:45:38.307Z,30.23
2018-12-16T00:48:05.817Z,30.82
2018-12-16T00:50:33.156Z,30.75
2018-12-16T00:53:00.393Z,33.18
2018-12-16T00:55:27.596Z,30.95
2018-12-16T00:57:55.049Z,40.12
2018-12-16T01:00:22.380Z,32.48
2018-12-16T01:02:49.714Z,35.08
2018-12-16T01:05:17.048Z,34.48
2018-12-16T01:07:44.375Z,29.77
2018-12-16T01:10:12.107Z,33.65
2018-12-16T01:12:39.430Z,28.92
2018-12-16T01:15:06.863Z,35.28
2018-12-16T01:17:34.080Z,35.50
2018-12-16T01:20:01.304Z,32.95
2018-12-16T01:22:28.645Z,28.25
2018-12-16T01:24:55.849Z,32.65
2018-12-16T01:27:23.291Z,32.35
2018-12-16T01:29:50.487Z,32.70
2018-12-16T01:32:17.740Z,34.65
2018-12-16T01:34:44.950Z,28.05
2018-12-16T01:37:12.160Z,25.40
2018-12-16T01:39:39.385Z,36.20
2018-12-16T01:42:06.712Z,27.35
2018-12-16T01:44:34.188Z,35.13
2018-12-16T01:47:01.404Z,30.35
2018-12-16T01:49:28.631Z,30.23
2018-12-16T01:51:55.861Z,31.42
2018-12-16T01:54:23.190Z,32.63
2018-12-16T01:56:50.429Z,36.30
2018-12-16T01:59:17.650Z,31.57
2018-12-16T02:01:50.828Z,31.40
2018-12-16T02:04:18.048Z,32.15
2018-12-16T02:06:45.380Z,28.47
2018-12-16T02:09:12.614Z,31.75
2018-12-16T02:11:40.049Z,41.60
2018-12-16T02:14:07.388Z,32.17
2018-12-16T02:16:34.983Z,30.92
2018-12-16T02:19:02.214Z,28.62
2018-12-16T02:21:29.423Z,35.25
2018-12-16T02:23:56.646Z,34.13
2018-12-16T02:26:23.856Z,37.55
2018-12-16T02:28:51.129Z,39.55
2018-12-16T02:31:18.344Z,30.43
2018-12-16T02:33:45.551Z,35.75
2018-12-16T02:36:12.785Z,32.83
2018-12-16T02:38:40.080Z,34.85
2018-12-16T02:41:07.308Z,31.20
2018-12-16T02:43:34.641Z,34.48
2018-12-16T02:46:02.008Z,33.48
2018-12-16T02:48:29.216Z,33.60
2018-12-16T02:50:56.555Z,38.50
2018-12-16T02:53:23.817Z,36.20
2018-12-16T02:55:51.037Z,31.90
2018-12-16T02:58:18.236Z,34.78
2018-12-16T03:00:45.452Z,37.95
2018-12-16T03:03:12.673Z,34.58
2018-12-16T03:05:39.888Z,37.17
2018-12-16T03:08:07.113Z,37.95
2018-12-16T03:10:34.450Z,32.88
2018-12-16T03:13:01.673Z,33.63
2018-12-16T03:15:29.025Z,37.42
2018-12-16T03:17:56.246Z,32.15
2018-12-16T03:20:23.482Z,38.15
2018-12-16T03:22:50.813Z,35.63
2018-12-16T03:25:18.151Z,37.38
2018-12-16T03:27:45.591Z,46.35
2018-12-16T03:30:12.949Z,31.77
2018-12-16T03:32:40.263Z,34.03
2018-12-16T03:35:07.754Z,32.42
2018-12-16T03:37:34.980Z,31.12
2018-12-16T03:40:02.542Z,34.88
2018-12-16T03:42:29.764Z,31.95
2018-12-16T03:44:56.981Z,33.90
2018-12-16T03:47:24.324Z,34.92
2018-12-16T03:49:51.541Z,37.80
2018-12-16T03:52:18.753Z,32.45
2018-12-16T03:54:45.953Z,32.98
2018-12-16T03:57:13.247Z,38.02
2018-12-16T03:59:40.545Z,38.58
2018-12-16T04:02:07.737Z,39.25
2018-12-16T04:04:34.903Z,33.70
2018-12-16T04:07:02.101Z,35.65
2018-12-16T04:09:29.276Z,41.83
2018-12-16T04:11:56.483Z,34.78
2018-12-16T04:14:23.664Z,34.33
2018-12-16T04:16:50.849Z,30.82
2018-12-16T04:19:18.140Z,41.58
2018-12-16T04:21:45.331Z,39.40
2018-12-16T04:24:12.511Z,34.95
2018-12-16T04:26:39.697Z,41.33
2018-12-16T04:29:06.984Z,33.92
2018-12-16T04:31:34.215Z,37.23
2018-12-16T04:34:01.399Z,36.08
2018-12-16T04:36:28.581Z,36.58
2018-12-16T04:38:55.765Z,37.28
2018-12-16T04:41:22.943Z,42.75
2018-12-16T04:43:50.132Z,34.15
2018-12-16T04:46:17.321Z,36.30
2018-12-16T04:48:44.518Z,34.85
2018-12-16T04:51:11.714Z,34.23
2018-12-16T04:53:38.913Z,37.35
2018-12-16T04:56:06.081Z,36.85
2018-12-16T04:58:33.281Z,39.78
2018-12-16T05:01:00.456Z,38.30
2018-12-16T05:03:27.635Z,39.18
2018-12-16T05:05:54.826Z,38.23
2018-12-16T05:08:22.021Z,36.83
2018-12-16T05:10:49.379Z,37.13
2018-12-16T05:13:16.577Z,39.00
2018-12-16T05:15:43.755Z,37.00
2018-12-16T05:18:10.967Z,39.88
2018-12-16T05:20:38.156Z,38.10
2018-12-16T05:23:05.455Z,36.00
2018-12-16T05:25:32.647Z,40.95
2018-12-16T05:27:59.832Z,36.33
2018-12-16T05:30:27.180Z,35.13
2018-12-16T05:32:54.365Z,40.55
2018-12-16T05:35:21.569Z,39.75
2018-12-16T05:37:48.750Z,38.90
2018-12-16T05:40:16.051Z,43.35
2018-12-16T05:42:43.233Z,39.13
2018-12-16T05:45:10.436Z,37.08
2018-12-16T05:47:37.619Z,41.00
2018-12-16T05:50:05.896Z,37.53
2018-12-16T05:52:33.196Z,35.10
2018-12-16T05:55:00.381Z,38.20
2018-12-16T05:57:27.551Z,38.40
2018-12-16T05:59:54.735Z,37.33
2018-12-16T06:02:21.928Z,31.57
2018-12-16T06:04:49.134Z,32.90
2018-12-16T06:07:16.316Z,42.10
2018-12-16T06:09:43.491Z,39.80
2018-12-16T06:12:10.681Z,36.98
2018-12-16T06:14:37.864Z,39.70
2018-12-16T06:17:05.163Z,35.23
2018-12-16T06:19:32.347Z,38.53
2018-12-16T06:21:59.527Z,35.90
2018-12-16T06:24:26.726Z,43.23
2018-12-16T06:26:53.899Z,33.75
2018-12-16T06:29:21.212Z,38.53
2018-12-16T06:31:48.395Z,33.00
2018-12-16T06:34:15.577Z,35.52
2018-12-16T06:36:42.773Z,36.50
2018-12-16T06:39:09.948Z,31.55
2018-12-16T06:41:37.136Z,36.40
2018-12-16T06:44:04.316Z,41.92
2018-12-16T06:46:31.508Z,33.90
2018-12-16T06:48:58.696Z,40.05
2018-12-16T06:51:25.933Z,39.48
2018-12-16T06:53:53.149Z,40.12
2018-12-16T06:56:20.440Z,44.77
2018-12-16T06:58:47.684Z,47.30
2018-12-16T07:01:16.040Z,40.17
2018-12-16T07:03:43.431Z,42.10
2018-12-16T07:06:10.773Z,38.60
2018-12-16T07:08:37.981Z,39.92
2018-12-16T07:11:05.205Z,37.05
2018-12-16T07:13:32.421Z,39.00
2018-12-16T07:15:59.759Z,35.48
2018-12-16T07:18:26.969Z,37.00
2018-12-16T07:20:54.180Z,44.90
2018-12-16T07:23:21.509Z,47.10
2018-12-16T07:25:48.785Z,44.48
2018-12-16T07:28:16.681Z,41.80
2018-12-16T07:30:44.090Z,42.13
2018-12-16T07:33:11.355Z,39.15
2018-12-16T07:35:38.577Z,42.17
2018-12-16T07:38:05.796Z,39.98
2018-12-16T07:40:33.032Z,40.00
2018-12-16T07:43:00.251Z,46.58
2018-12-16T07:45:27.481Z,43.02
2018-12-16T07:47:54.703Z,41.18
2018-12-16T07:50:22.072Z,36.75
2018-12-16T07:52:49.445Z,47.48
2018-12-16T07:55:16.675Z,52.13
2018-12-16T07:57:43.870Z,40.35
2018-12-16T08:00:11.431Z,40.70
2018-12-16T08:02:38.725Z,46.45
2018-12-16T08:05:06.203Z,45.52
2018-12-16T08:07:33.466Z,44.33
2018-12-16T08:10:00.648Z,42.10
2018-12-16T08:12:28.040Z,49.20
2018-12-16T08:14:55.354Z,51.30
2018-12-16T08:17:22.561Z,40.43
2018-12-16T08:19:49.814Z,45.80
2018-12-16T08:22:16.992Z,54.80
2018-12-16T08:24:44.290Z,45.30
2018-12-16T08:27:11.616Z,45.78
2018-12-16T08:29:38.827Z,46.00
2018-12-16T08:32:06.012Z,47.90
2018-12-16T08:34:33.320Z,75.57
2018-12-16T08:37:00.604Z,66.92
2018-12-16T08:39:27.796Z,49.42
2018-12-16T08:41:54.996Z,52.20
2018-12-16T08:44:22.280Z,41.05
2018-12-16T08:46:49.517Z,43.87
2018-12-16T08:49:16.741Z,41.60
2018-12-16T08:51:43.949Z,36.00
2018-12-16T08:54:11.250Z,42.60
2018-12-16T08:56:38.549Z,41.63
2018-12-16T08:59:05.736Z,40.70
2018-12-16T09:01:32.916Z,48.08
2018-12-16T09:04:00.533Z,47.67
2018-12-16T09:06:27.712Z,50.45
2018-12-16T09:08:55.333Z,51.55
2018-12-16T09:11:22.514Z,57.10
2018-12-16T09:13:49.707Z,65.35
2018-12-16T09:16:17.004Z,57.08
2018-12-16T09:18:44.196Z,60.03
2018-12-16T09:21:11.384Z,58.98
2018-12-16T09:23:38.555Z,45.70
2018-12-16T09:26:05.752Z,57.85
2018-12-16T09:28:32.933Z,54.10
2018-12-16T09:31:00.119Z,52.23
2018-12-16T09:33:27.304Z,55.43
2018-12-16T09:35:54.497Z,63.25
2018-12-16T09:38:21.667Z,55.33
2018-12-16T09:40:48.984Z,59.55
2018-12-16T09:43:16.155Z,58.08
2018-12-16T09:45:49.266Z,55.25
2018-12-16T09:48:12.544Z,68.65
2018-12-16T09:50:39.861Z,69.65
2018-12-16T09:53:07.092Z,72.58
2018-12-16T09:55:34.312Z,65.50
2018-12-16T09:58:01.515Z,72.82
2018-12-16T10:00:28.733Z,77.30
2018-12-16T10:02:55.945Z,64.82
2018-12-16T10:05:23.173Z,71.20
2018-12-16T10:07:50.385Z,78.90
2018-12-16T10:10:17.608Z,50.45
2018-12-16T10:12:44.936Z,61.37
2018-12-16T10:15:12.271Z,52.30
2018-12-16T10:17:39.600Z,65.12
2018-12-16T10:20:08.808Z,51.68
2018-12-16T10:22:36.013Z,70.37
2018-12-16T10:25:03.500Z,54.98
2018-12-16T10:27:30.704Z,50.23
2018-12-16T10:29:57.917Z,56.90
2018-12-16T10:32:25.247Z,58.05
2018-12-16T10:34:52.453Z,50.33
2018-12-16T10:37:19.672Z,42.20
2018-12-16T10:39:46.919Z,50.08
2018-12-16T10:42:14.131Z,43.25
2018-12-16T10:44:41.357Z,52.23
2018-12-16T10:47:08.584Z,54.53
2018-12-16T10:49:35.915Z,62.38
2018-12-16T10:52:03.186Z,67.55
2018-12-16T10:54:30.384Z,57.93
2018-12-16T10:56:57.607Z,67.47
2018-12-16T10:59:24.827Z,63.85
2018-12-16T11:01:52.047Z,46.05
2018-12-16T11:04:19.269Z,58.40
2018-12-16T11:06:47.548Z,59.80
2018-12-16T11:09:14.793Z,54.80
2018-12-16T11:11:42.040Z,50.78
2018-12-16T11:14:09.400Z,42.85
2018-12-16T11:16:36.808Z,49.90
2018-12-16T11:19:04.145Z,53.75
2018-12-16T11:21:31.380Z,53.92
2018-12-16T11:23:58.596Z,57.65
2018-12-16T11:26:25.929Z,55.33
2018-12-16T11:28:53.138Z,50.40
2018-12-16T11:31:20.353Z,48.10
2018-12-16T11:33:47.568Z,46.85
2018-12-16T11:36:14.816Z,45.78
2018-12-16T11:38:42.041Z,44.00
2018-12-16T11:41:09.275Z,48.48
2018-12-16T11:43:36.514Z,46.15
2018-12-16T11:46:03.841Z,41.45
2018-12-16T11:48:31.135Z,51.85
2018-12-16T11:50:58.439Z,44.53
2018-12-16T11:53:25.744Z,52.88
2018-12-16T11:55:53.188Z,48.45
2018-12-16T11:58:20.556Z,48.45
2018-12-16T12:00:47.975Z,46.63
2018-12-16T12:03:15.204Z,42.45
2018-12-16T12:05:42.560Z,53.80
2018-12-16T12:08:09.910Z,51.05
2018-12-16T12:10:37.304Z,276.55
2018-12-16T12:13:04.605Z,205.43
2018-12-16T12:15:31.949Z,69.58
2018-12-16T12:17:59.196Z,53.38
2018-12-16T12:20:26.613Z,54.95
2018-12-16T12:22:54.069Z,62.53
2018-12-16T12:25:21.417Z,42.38
2018-12-16T12:27:48.638Z,55.12
2018-12-16T12:30:15.895Z,45.98
2018-12-16T12:32:43.259Z,55.92
2018-12-16T12:35:10.651Z,58.13
2018-12-16T12:37:37.999Z,54.27
2018-12-16T12:40:05.968Z,49.73
2018-12-16T12:42:33.394Z,49.23
2018-12-16T12:45:00.666Z,51.10
2018-12-16T12:47:28.023Z,48.60
2018-12-16T12:49:55.348Z,41.60
2018-12-16T12:52:22.547Z,54.95
2018-12-16T12:54:49.735Z,62.25
2018-12-16T12:57:17.057Z,58.00
2018-12-16T12:59:44.315Z,47.08
2018-12-16T13:02:11.883Z,46.85
2018-12-16T13:04:39.187Z,48.90
2018-12-16T13:07:06.653Z,47.13
2018-12-16T13:09:33.996Z,51.18
2018-12-16T13:12:01.217Z,48.45
2018-12-16T13:14:28.450Z,46.63
2018-12-16T13:16:55.687Z,43.38
2018-12-16T13:19:24.995Z,46.92
2018-12-16T13:21:52.341Z,49.27
2018-12-16T13:24:19.625Z,54.08
2018-12-16T13:26:46.897Z,52.20
2018-12-16T13:29:14.208Z,51.65
2018-12-16T13:31:41.471Z,45.45
2018-12-16T13:34:08.840Z,50.48
2018-12-16T13:36:36.136Z,52.30
2018-12-16T13:39:05.840Z,57.50
2018-12-16T13:41:33.288Z,47.58
2018-12-16T13:44:00.548Z,49.05
2018-12-16T13:46:27.872Z,49.33
2018-12-16T13:48:55.237Z,52.25
2018-12-16T13:51:22.509Z,52.38
2018-12-16T13:53:49.775Z,48.20
2018-12-16T13:56:16.985Z,83.92
2018-12-16T13:58:44.285Z,130.85
2018-12-16T14:01:11.477Z,135.90
2018-12-16T14:03:38.681Z,71.22
2018-12-16T14:06:05.916Z,86.72
2018-12-16T14:08:33.091Z,59.77
2018-12-16T14:11:00.324Z,54.95
2018-12-16T14:13:27.501Z,58.23
2018-12-16T14:15:54.829Z,61.58
2018-12-16T14:18:22.004Z,60.48
2018-12-16T14:20:49.308Z,56.75
2018-12-16T14:23:16.484Z,56.55
2018-12-16T14:25:47.993Z,60.03
2018-12-16T14:28:12.936Z,69.53
2018-12-16T14:30:40.124Z,116.93
2018-12-16T14:33:07.325Z,62.15
2018-12-16T14:35:34.648Z,86.87
2018-12-16T14:38:02.101Z,85.07
2018-12-16T14:40:29.280Z,65.25
2018-12-16T14:42:56.472Z,76.47
2018-12-16T14:45:23.761Z,66.72
2018-12-16T14:47:50.996Z,54.40
2018-12-16T14:50:18.355Z,62.50
2018-12-16T14:52:45.677Z,79.20
2018-12-16T14:55:12.914Z,70.80
2018-12-16T14:57:40.197Z,66.82
2018-12-16T15:00:09.529Z,83.55
2018-12-16T15:02:36.893Z,76.02
2018-12-16T15:05:04.869Z,87.08
2018-12-16T15:07:32.372Z,88.37
2018-12-16T15:09:59.704Z,72.58
2018-12-16T15:12:26.894Z,77.20
2018-12-16T15:14:54.308Z,81.35
2018-12-16T15:17:22.003Z,82.15
2018-12-16T15:19:49.188Z,57.38
2018-12-16T15:22:16.384Z,65.32
2018-12-16T15:24:43.637Z,53.00
2018-12-16T15:27:10.811Z,54.15
2018-12-16T15:29:37.983Z,49.75
2018-12-16T15:32:05.369Z,52.80
2018-12-16T15:34:32.543Z,48.48
2018-12-16T15:36:59.832Z,76.33
2018-12-16T15:39:27.169Z,65.87
2018-12-16T15:41:54.376Z,66.30
2018-12-16T15:44:21.556Z,61.73
2018-12-16T15:46:48.855Z,50.00
2018-12-16T15:49:16.060Z,49.33
2018-12-16T15:51:43.359Z,50.80
2018-12-16T15:54:10.589Z,45.05
2018-12-16T15:56:38.084Z,44.15
2018-12-16T15:59:05.392Z,41.58
2018-12-16T16:01:32.624Z,47.23
2018-12-16T16:03:59.820Z,47.55
2018-12-16T16:06:27.116Z,51.85
2018-12-16T16:08:54.311Z,47.13
2018-12-16T16:11:21.494Z,50.92
2018-12-16T16:13:48.713Z,45.25
2018-12-16T16:16:15.983Z,39.85
2018-12-16T16:18:43.166Z,44.18
2018-12-16T16:21:10.451Z,45.08
2018-12-16T16:23:37.729Z,45.43
2018-12-16T16:26:05.019Z,48.38
2018-12-16T16:28:32.208Z,49.15
2018-12-16T16:30:59.411Z,89.32
2018-12-16T16:33:26.727Z,142.43
2018-12-16T16:35:54.039Z,148.25
2018-12-16T16:38:21.301Z,94.17
2018-12-16T16:40:49.024Z,97.40
2018-12-16T16:43:16.210Z,77.27
2018-12-16T16:45:43.401Z,68.90
2018-12-16T16:48:10.705Z,70.08
2018-12-16T16:50:37.885Z,59.70
2018-12-16T16:53:05.092Z,57.78
2018-12-16T16:55:32.399Z,58.90
2018-12-16T16:57:59.591Z,54.33
2018-12-16T17:00:26.836Z,52.40
2018-12-16T17:02:54.022Z,42.60
2018-12-16T17:05:21.341Z,49.05
2018-12-16T17:07:48.644Z,45.58
2018-12-16T17:10:15.836Z,43.13
2018-12-16T17:12:43.153Z,37.67
2018-12-16T17:15:10.402Z,40.40
2018-12-16T17:17:37.584Z,41.83
2018-12-16T17:20:05.691Z,41.63
2018-12-16T17:22:32.868Z,37.40
2018-12-16T17:25:00.051Z,40.38
2018-12-16T17:27:27.406Z,49.10
2018-12-16T17:29:54.643Z,62.62
2018-12-16T17:32:21.813Z,62.67
2018-12-16T17:34:48.991Z,70.00
2018-12-16T17:37:16.179Z,55.78
2018-12-16T17:39:43.379Z,54.33
2018-12-16T17:42:10.568Z,59.35
2018-12-16T17:44:37.869Z,48.15
2018-12-16T17:47:05.184Z,76.57
2018-12-16T17:49:32.371Z,69.55
2018-12-16T17:51:59.580Z,61.28
2018-12-16T17:54:26.872Z,56.33
2018-12-16T17:56:54.069Z,59.05
2018-12-16T17:59:21.245Z,49.95
2018-12-16T18:01:48.565Z,41.00
2018-12-16T18:04:15.858Z,44.38
2018-12-16T18:06:43.047Z,39.70
2018-12-16T18:09:10.349Z,30.27
2018-12-16T18:11:37.664Z,40.80
2018-12-16T18:14:04.862Z,40.33
2018-12-16T18:16:32.059Z,32.35
2018-12-16T18:18:59.237Z,32.05
2018-12-16T18:21:26.522Z,29.57
2018-12-16T18:23:53.712Z,30.10
2018-12-16T18:26:20.904Z,32.28
2018-12-16T18:28:48.084Z,31.45
2018-12-16T18:31:15.289Z,37.38
2018-12-16T18:33:42.572Z,36.85
2018-12-16T18:36:09.892Z,37.08
2018-12-16T18:38:37.076Z,31.42
2018-12-16T18:41:04.378Z,29.92
2018-12-16T18:43:31.564Z,33.35
2018-12-16T18:45:58.740Z,34.60
2018-12-16T18:48:25.955Z,34.67
2018-12-16T18:50:53.130Z,33.28
2018-12-16T18:53:20.329Z,27.37
2018-12-16T18:55:47.533Z,25.15
2018-12-16T18:58:14.830Z,27.60
2018-12-16T19:00:42.157Z,28.05
2018-12-16T19:03:09.353Z,30.70
2018-12-16T19:05:36.552Z,29.27
2018-12-16T19:08:03.777Z,28.12
2018-12-16T19:10:30.964Z,26.40
2018-12-16T19:12:58.206Z,29.67
2018-12-16T19:15:25.733Z,29.85
2018-12-16T19:17:52.933Z,24.65
2018-12-16T19:20:20.265Z,25.77
2018-12-16T19:22:47.632Z,25.77
2018-12-16T19:25:14.940Z,25.00
2018-12-16T19:27:42.131Z,26.05
2018-12-16T19:30:09.581Z,26.73
2018-12-16T19:32:36.767Z,37.23
2018-12-16T19:35:05.389Z,34.08
2018-12-16T19:37:32.585Z,34.88
2018-12-16T19:40:00.667Z,36.48
2018-12-16T19:42:27.869Z,37.48
2018-12-16T19:44:55.244Z,32.33
2018-12-16T19:47:22.428Z,29.65
2018-12-16T19:49:49.628Z,30.12
2018-12-16T19:52:16.949Z,26.93
2018-12-16T19:54:44.577Z,29.12
2018-12-16T19:57:11.994Z,23.42
2018-12-16T19:59:39.197Z,22.37
2018-12-16T20:02:06.720Z,20.82
2018-12-16T20:04:39.528Z,27.90
2018-12-16T20:07:06.789Z,22.00
2018-12-16T20:09:34.005Z,22.73
2018-12-16T20:12:01.311Z,27.02
2018-12-16T20:14:28.515Z,23.83
2018-12-16T20:16:55.709Z,24.92
2018-12-16T20:19:22.935Z,24.52
2018-12-16T20:21:50.185Z,24.90
2018-12-16T20:24:17.387Z,24.40
2018-12-16T20:26:44.589Z,31.12
2018-12-16T20:29:12.644Z,24.20
2018-12-16T20:31:39.916Z,26.00
2018-12-16T20:34:07.136Z,26.10
2018-12-16T20:36:34.496Z,26.93
2018-12-16T20:39:01.881Z,29.67
2018-12-16T20:41:29.082Z,27.45
2018-12-16T20:43:56.284Z,30.52
2018-12-16T20:46:23.489Z,28.52
2018-12-16T20:48:50.768Z,27.60
2018-12-16T20:51:18.016Z,32.42
2018-12-16T20:53:45.217Z,31.45
2018-12-16T20:56:12.438Z,51.85
2018-12-16T20:58:39.803Z,57.98
2018-12-16T21:01:07.189Z,60.78
2018-12-16T21:03:34.398Z,54.48
2018-12-16T21:06:01.717Z,48.45
2018-12-16T21:08:28.931Z,53.45
2018-12-16T21:10:58.271Z,55.25
2018-12-16T21:13:31.412Z,50.35
2018-12-16T21:16:04.492Z,56.90
2018-12-16T21:18:31.724Z,60.48
2018-12-16T21:20:59.093Z,49.38
2018-12-16T21:23:26.284Z,51.08
2018-12-16T21:25:53.485Z,50.30
2018-12-16T21:28:21.631Z,59.03
2018-12-16T21:30:48.839Z,64.82
2018-12-16T21:33:16.054Z,56.18
2018-12-16T21:35:43.688Z,42.15
2018-12-16T21:38:10.872Z,44.90
2018-12-16T21:40:38.100Z,38.17
2018-12-16T21:43:05.308Z,46.02
2018-12-16T21:45:32.567Z,38.42
2018-12-16T21:47:59.805Z,34.13
2018-12-16T21:50:27.113Z,30.68
2018-12-16T21:52:54.335Z,28.75
2018-12-16T21:55:21.541Z,30.62
2018-12-16T21:57:48.787Z,29.87
2018-12-16T22:00:16.096Z,30.20
2018-12-16T22:02:43.397Z,33.67
2018-12-16T22:05:12.209Z,29.85
2018-12-16T22:07:39.478Z,33.05
2018-12-16T22:10:06.934Z,25.95
2018-12-16T22:12:34.193Z,28.92
2018-12-16T22:15:01.652Z,33.70
2018-12-16T22:17:28.880Z,36.48
2018-12-16T22:19:56.105Z,54.45
2018-12-16T22:22:23.392Z,40.65
2018-12-16T22:24:50.634Z,45.40
2018-12-16T22:27:17.946Z,36.40
2018-12-16T22:29:45.184Z,32.78
2018-12-16T22:32:12.474Z,32.35
2018-12-16T22:34:39.675Z,27.27
2018-12-16T22:37:07.111Z,32.48
2018-12-16T22:39:34.536Z,27.45
2018-12-16T22:42:01.956Z,30.20
2018-12-16T22:44:29.594Z,26.27
2018-12-16T22:46:56.791Z,35.00
2018-12-16T22:49:24.006Z,37.33
2018-12-16T22:51:51.328Z,42.08
2018-12-16T22:54:18.712Z,35.73
2018-12-16T22:56:45.919Z,30.50
2018-12-16T22:59:13.127Z,32.80
2018-12-16T23:01:40.332Z,32.38
2018-12-16T23:04:07.653Z,30.75
2018-12-16T23:06:34.931Z,29.45
2018-12-16T23:09:02.331Z,29.55
2018-12-16T23:11:29.645Z,28.57
2018-12-16T23:13:56.913Z,29.45
2018-12-16T23:16:24.254Z,27.87
2018-12-16T23:18:51.486Z,32.83
2018-12-16T23:21:18.810Z,25.05
2018-12-16T23:23:46.035Z,29.40
2018-12-16T23:26:13.357Z,30.57
2018-12-16T23:28:40.684Z,27.30
2018-12-16T23:31:07.993Z,27.35
2018-12-16T23:33:35.239Z,32.65
2018-12-16T23:36:02.586Z,29.37
2018-12-16T23:38:29.796Z,43.20
2018-12-16T23:40:57.013Z,35.25
2018-12-16T23:43:24.217Z,40.10
2018-12-16T23:45:51.412Z,38.60
2018-12-16T23:48:18.610Z,92.85
2018-12-16T23:50:45.832Z,68.85
2018-12-16T23:53:13.043Z,48.98
2018-12-16T23:55:40.252Z,48.58
2018-12-16T23:58:07.468Z,41.23
